sensor_id;sensor_type;location;lat;lon;timestamp;pressure;altitude;pressure_sealevel;temperature;humidity
63399;BME280;49533;-34.520;150.798;2022-11-20T00:00:09;98634.16;;;20.79;40.61
63399;BME280;49533;-34.520;150.798;2022-11-20T00:02:36;98638.84;;;20.82;40.94
63399;BME280;49533;-34.520;150.798;2022-11-20T00:05:02;98645.19;;;20.79;40.37
63399;BME280;49533;-34.520;150.798;2022-11-20T00:07:29;98645.56;;;20.81;40.11
63399;BME280;49533;-34.520;150.798;2022-11-20T00:09:56;98656.94;;;20.83;40.26
63399;BME280;49533;-34.520;150.798;2022-11-20T00:12:22;98688.81;;;20.88;40.53
63399;BME280;49533;-34.520;150.798;2022-11-20T00:14:49;98721.16;;;20.88;40.37
63399;BME280;49533;-34.520;150.798;2022-11-20T00:17:16;98674.63;;;20.86;40.27
63399;BME280;49533;-34.520;150.798;2022-11-20T00:19:43;98718.41;;;20.88;39.68
63399;BME280;49533;-34.520;150.798;2022-11-20T00:22:09;98708.91;;;20.89;39.56
63399;BME280;49533;-34.520;150.798;2022-11-20T00:24:37;98723.91;;;20.88;39.61
63399;BME280;49533;-34.520;150.798;2022-11-20T00:27:04;98690.03;;;20.87;39.22
63399;BME280;49533;-34.520;150.798;2022-11-20T00:29:31;98698.66;;;20.89;39.33
63399;BME280;49533;-34.520;150.798;2022-11-20T00:31:58;98691.53;;;20.92;39.67
63399;BME280;49533;-34.520;150.798;2022-11-20T00:34:24;98700.81;;;21.01;39.19
63399;BME280;49533;-34.520;150.798;2022-11-20T00:36:51;98730.38;;;21.24;38.66
63399;BME280;49533;-34.520;150.798;2022-11-20T00:39:18;98745.19;;;21.34;37.92
63399;BME280;49533;-34.520;150.798;2022-11-20T00:41:44;98741.59;;;21.37;37.85
63399;BME280;49533;-34.520;150.798;2022-11-20T00:44:11;98741.06;;;21.46;37.97
63399;BME280;49533;-34.520;150.798;2022-11-20T00:46:38;98722.84;;;21.48;36.94
63399;BME280;49533;-34.520;150.798;2022-11-20T00:49:04;98769.59;;;21.59;37.05
63399;BME280;49533;-34.520;150.798;2022-11-20T00:51:31;98748.59;;;21.65;36.10
63399;BME280;49533;-34.520;150.798;2022-11-20T00:53:58;98748.59;;;21.65;35.92
63399;BME280;49533;-34.520;150.798;2022-11-20T00:56:26;98761.19;;;21.66;36.23
63399;BME280;49533;-34.520;150.798;2022-11-20T00:58:54;98741.97;;;21.79;35.69
63399;BME280;49533;-34.520;150.798;2022-11-20T01:01:22;98744.16;;;21.88;35.14
63399;BME280;49533;-34.520;150.798;2022-11-20T01:03:52;98734.72;;;21.85;35.15
63399;BME280;49533;-34.520;150.798;2022-11-20T01:06:23;98753.66;;;21.87;34.83
63399;BME280;49533;-34.520;150.798;2022-11-20T01:08:52;98747.63;;;21.92;34.97
63399;BME280;49533;-34.520;150.798;2022-11-20T01:11:21;98752.91;;;21.86;35.53
63399;BME280;49533;-34.520;150.798;2022-11-20T01:13:48;98757.56;;;21.89;35.91
63399;BME280;49533;-34.520;150.798;2022-11-20T01:16:16;98758.28;;;21.93;35.79
63399;BME280;49533;-34.520;150.798;2022-11-20T01:18:44;98770.81;;;21.98;35.88
63399;BME280;49533;-34.520;150.798;2022-11-20T01:21:14;98799.53;;;22.04;36.18
63399;BME280;49533;-34.520;150.798;2022-11-20T01:23:42;98782.56;;;22.02;36.69
63399;BME280;49533;-34.520;150.798;2022-11-20T01:26:11;98765.91;;;22.06;35.87
63399;BME280;49533;-34.520;150.798;2022-11-20T01:28:38;98760.31;;;22.09;36.23
63399;BME280;49533;-34.520;150.798;2022-11-20T01:31:11;98780.81;;;22.12;36.23
63399;BME280;49533;-34.520;150.798;2022-11-20T01:33:39;98812.00;;;22.12;35.55
63399;BME280;49533;-34.520;150.798;2022-11-20T01:36:06;98776.41;;;22.14;35.35
63399;BME280;49533;-34.520;150.798;2022-11-20T01:38:33;98774.31;;;22.19;35.75
63399;BME280;49533;-34.520;150.798;2022-11-20T01:41:00;98775.94;;;22.20;35.33
63399;BME280;49533;-34.520;150.798;2022-11-20T01:43:27;98755.34;;;22.21;35.72
63399;BME280;49533;-34.520;150.798;2022-11-20T01:46:06;98775.06;;;22.23;36.06
63399;BME280;49533;-34.520;150.798;2022-11-20T01:48:42;98770.94;;;22.31;35.01
63399;BME280;49533;-34.520;150.798;2022-11-20T01:51:13;98806.47;;;22.32;35.13
63399;BME280;49533;-34.520;150.798;2022-11-20T01:53:42;98785.03;;;22.36;35.69
63399;BME280;49533;-34.520;150.798;2022-11-20T01:56:10;98803.88;;;22.42;35.75
63399;BME280;49533;-34.520;150.798;2022-11-20T01:58:40;98817.41;;;22.40;36.54
63399;BME280;49533;-34.520;150.798;2022-11-20T02:01:09;98807.09;;;22.40;35.47
63399;BME280;49533;-34.520;150.798;2022-11-20T02:03:36;98797.56;;;22.41;35.36
63399;BME280;49533;-34.520;150.798;2022-11-20T02:06:08;98798.28;;;22.45;34.46
63399;BME280;49533;-34.520;150.798;2022-11-20T02:08:38;98792.41;;;22.43;34.93
63399;BME280;49533;-34.520;150.798;2022-11-20T02:11:05;98826.75;;;22.46;34.59
63399;BME280;49533;-34.520;150.798;2022-11-20T02:13:32;98808.66;;;22.41;34.70
63399;BME280;49533;-34.520;150.798;2022-11-20T02:16:10;98781.84;;;22.38;34.69
63399;BME280;49533;-34.520;150.798;2022-11-20T02:18:38;98825.97;;;22.45;33.70
63399;BME280;49533;-34.520;150.798;2022-11-20T02:21:07;98832.97;;;22.50;32.93
63399;BME280;49533;-34.520;150.798;2022-11-20T02:23:38;98808.66;;;22.41;33.85
63399;BME280;49533;-34.520;150.798;2022-11-20T02:26:06;98807.47;;;22.42;34.14
63399;BME280;49533;-34.520;150.798;2022-11-20T02:28:35;98799.94;;;22.43;34.22
63399;BME280;49533;-34.520;150.798;2022-11-20T02:31:02;98796.72;;;22.44;34.53
63399;BME280;49533;-34.520;150.798;2022-11-20T02:33:29;98815.25;;;22.47;34.70
63399;BME280;49533;-34.520;150.798;2022-11-20T02:35:56;98798.66;;;22.47;34.83
63399;BME280;49533;-34.520;150.798;2022-11-20T02:38:25;98826.66;;;22.49;34.42
63399;BME280;49533;-34.520;150.798;2022-11-20T02:40:52;98852.63;;;22.55;33.20
63399;BME280;49533;-34.520;150.798;2022-11-20T02:43:19;98810.75;;;22.53;33.28
63399;BME280;49533;-34.520;150.798;2022-11-20T02:45:45;98831.75;;;22.51;33.77
63399;BME280;49533;-34.520;150.798;2022-11-20T02:48:12;98804.28;;;22.60;32.97
63399;BME280;49533;-34.520;150.798;2022-11-20T02:50:39;98828.91;;;22.54;33.40
63399;BME280;49533;-34.520;150.798;2022-11-20T02:53:06;98835.25;;;22.55;33.44
63399;BME280;49533;-34.520;150.798;2022-11-20T02:55:33;98826.13;;;22.54;33.48
63399;BME280;49533;-34.520;150.798;2022-11-20T02:58:03;98798.41;;;22.58;33.66
63399;BME280;49533;-34.520;150.798;2022-11-20T03:00:31;98839.81;;;22.62;33.72
63399;BME280;49533;-34.520;150.798;2022-11-20T03:02:58;98847.34;;;22.61;33.86
63399;BME280;49533;-34.520;150.798;2022-11-20T03:05:25;98833.09;;;22.63;32.65
63399;BME280;49533;-34.520;150.798;2022-11-20T03:07:51;98843.38;;;22.62;32.09
63399;BME280;49533;-34.520;150.798;2022-11-20T03:10:18;98839.81;;;22.62;31.42
63399;BME280;49533;-34.520;150.798;2022-11-20T03:12:45;98854.44;;;22.62;29.89
63399;BME280;49533;-34.520;150.798;2022-11-20T03:15:11;98829.19;;;22.60;29.92
63399;BME280;49533;-34.520;150.798;2022-11-20T03:17:38;98838.28;;;22.61;30.05
63399;BME280;49533;-34.520;150.798;2022-11-20T03:20:05;98858.16;;;22.55;31.01
63399;BME280;49533;-34.520;150.798;2022-11-20T03:22:32;98854.94;;;22.57;31.06
63399;BME280;49533;-34.520;150.798;2022-11-20T03:24:58;98832.91;;;22.53;31.25
63399;BME280;49533;-34.520;150.798;2022-11-20T03:27:25;98838.34;;;22.57;30.30
63399;BME280;49533;-34.520;150.798;2022-11-20T03:29:52;98815.88;;;22.55;30.59
63399;BME280;49533;-34.520;150.798;2022-11-20T03:32:19;98822.19;;;22.55;31.31
63399;BME280;49533;-34.520;150.798;2022-11-20T03:34:46;98861.28;;;22.57;31.37
63399;BME280;49533;-34.520;150.798;2022-11-20T03:37:12;98839.81;;;22.62;31.14
63399;BME280;49533;-34.520;150.798;2022-11-20T03:39:39;98810.50;;;22.64;31.09
63399;BME280;49533;-34.520;150.798;2022-11-20T03:42:06;98801.78;;;22.66;30.90
63399;BME280;49533;-34.520;150.798;2022-11-20T03:44:52;98851.34;;;22.60;31.39
63399;BME280;49533;-34.520;150.798;2022-11-20T03:47:19;98853.66;;;22.62;31.56
63399;BME280;49533;-34.520;150.798;2022-11-20T03:49:45;98823.16;;;22.65;30.48
63399;BME280;49533;-34.520;150.798;2022-11-20T03:52:12;98835.41;;;22.64;30.88
63399;BME280;49533;-34.520;150.798;2022-11-20T03:54:39;98791.56;;;22.63;30.24
63399;BME280;49533;-34.520;150.798;2022-11-20T03:57:05;98801.84;;;22.62;31.41
63399;BME280;49533;-34.520;150.798;2022-11-20T03:59:33;98820.81;;;22.64;31.87
63399;BME280;49533;-34.520;150.798;2022-11-20T04:02:01;98791.38;;;22.70;31.55
63399;BME280;49533;-34.520;150.798;2022-11-20T04:04:27;98801.69;;;22.69;31.13
63399;BME280;49533;-34.520;150.798;2022-11-20T04:06:54;98827.72;;;22.72;30.61
63399;BME280;49533;-34.520;150.798;2022-11-20T04:09:21;98802.81;;;22.72;30.84
63399;BME280;49533;-34.520;150.798;2022-11-20T04:11:47;98798.50;;;22.71;30.32
63399;BME280;49533;-34.520;150.798;2022-11-20T04:14:14;98801.78;;;22.66;30.92
63399;BME280;49533;-34.520;150.798;2022-11-20T04:16:41;98797.44;;;22.65;30.80
63399;BME280;49533;-34.520;150.798;2022-11-20T04:19:13;98793.13;;;22.64;30.63
63399;BME280;49533;-34.520;150.798;2022-11-20T04:21:41;98795.91;;;22.64;31.22
63399;BME280;49533;-34.520;150.798;2022-11-20T04:24:07;98782.06;;;22.64;31.36
63399;BME280;49533;-34.520;150.798;2022-11-20T04:26:36;98799.44;;;22.64;31.30
63399;BME280;49533;-34.520;150.798;2022-11-20T04:29:03;98801.44;;;22.64;31.31
63399;BME280;49533;-34.520;150.798;2022-11-20T04:31:31;98800.66;;;22.63;31.10
63399;BME280;49533;-34.520;150.798;2022-11-20T04:34:00;98805.06;;;22.61;30.98
63399;BME280;49533;-34.520;150.798;2022-11-20T04:36:27;98805.06;;;22.61;31.44
63399;BME280;49533;-34.520;150.798;2022-11-20T04:38:56;98801.84;;;22.62;31.35
63399;BME280;49533;-34.520;150.798;2022-11-20T04:41:24;98795.53;;;22.62;31.38
63399;BME280;49533;-34.520;150.798;2022-11-20T04:43:53;98799.88;;;22.63;31.43
63399;BME280;49533;-34.520;150.798;2022-11-20T04:46:25;98799.88;;;22.63;31.43
63399;BME280;49533;-34.520;150.798;2022-11-20T04:48:52;98800.66;;;22.63;31.48
63399;BME280;49533;-34.520;150.798;2022-11-20T04:51:19;98812.50;;;22.64;31.83
63399;BME280;49533;-34.520;150.798;2022-11-20T04:53:46;98794.66;;;22.65;31.60
63399;BME280;49533;-34.520;150.798;2022-11-20T04:56:13;98772.53;;;22.65;31.75
63399;BME280;49533;-34.520;150.798;2022-11-20T04:58:40;98802.56;;;22.66;31.70
63399;BME280;49533;-34.520;150.798;2022-11-20T05:01:10;98805.75;;;22.65;31.39
63399;BME280;49533;-34.520;150.798;2022-11-20T05:03:39;98794.34;;;22.63;31.71
63399;BME280;49533;-34.520;150.798;2022-11-20T05:06:07;98813.28;;;22.64;31.21
63399;BME280;49533;-34.520;150.798;2022-11-20T05:08:34;98823.56;;;22.64;31.10
63399;BME280;49533;-34.520;150.798;2022-11-20T05:11:04;98824.69;;;22.66;29.80
63399;BME280;49533;-34.520;150.798;2022-11-20T05:13:30;98797.03;;;22.66;29.66
63399;BME280;49533;-34.520;150.798;2022-11-20T05:16:01;98823.22;;;22.62;29.35
63399;BME280;49533;-34.520;150.798;2022-11-20T05:18:28;98829.53;;;22.62;29.24
63399;BME280;49533;-34.520;150.798;2022-11-20T05:20:55;98826.34;;;22.64;28.95
63399;BME280;49533;-34.520;150.798;2022-11-20T05:23:22;98862.75;;;22.62;29.31
63399;BME280;49533;-34.520;150.798;2022-11-20T05:25:51;98818.91;;;22.61;29.14
63399;BME280;49533;-34.520;150.798;2022-11-20T05:28:18;98846.22;;;22.58;29.67
63399;BME280;49533;-34.520;150.798;2022-11-20T05:30:44;98815.38;;;22.60;29.50
63399;BME280;49533;-34.520;150.798;2022-11-20T05:33:11;98848.22;;;22.58;29.46
63399;BME280;49533;-34.520;150.798;2022-11-20T05:35:38;98840.28;;;22.60;30.00
63399;BME280;49533;-34.520;150.798;2022-11-20T05:38:05;98881.78;;;22.60;30.15
63399;BME280;49533;-34.520;150.798;2022-11-20T05:40:32;98875.44;;;22.60;29.71
63399;BME280;49533;-34.520;150.798;2022-11-20T05:45:34;98886.97;;;22.58;30.17
63399;BME280;49533;-34.520;150.798;2022-11-20T05:48:01;98877.88;;;22.57;29.90
63399;BME280;49533;-34.520;150.798;2022-11-20T05:50:28;98906.75;;;22.56;30.04
63399;BME280;49533;-34.520;150.798;2022-11-20T05:52:57;98878.66;;;22.58;29.41
63399;BME280;49533;-34.520;150.798;2022-11-20T05:55:25;98882.28;;;22.55;29.08
63399;BME280;49533;-34.520;150.798;2022-11-20T05:57:53;98903.63;;;22.54;29.64
63399;BME280;49533;-34.520;150.798;2022-11-20T06:00:20;98908.41;;;22.54;29.58
63399;BME280;49533;-34.520;150.798;2022-11-20T06:02:47;98908.84;;;22.52;29.85
63399;BME280;49533;-34.520;150.798;2022-11-20T06:05:15;98909.66;;;22.49;30.13
63399;BME280;49533;-34.520;150.798;2022-11-20T06:07:42;98901.03;;;22.47;30.45
63399;BME280;49533;-34.520;150.798;2022-11-20T06:10:09;98890.81;;;22.44;30.88
63399;BME280;49533;-34.520;150.798;2022-11-20T06:12:36;98911.38;;;22.43;30.95
63399;BME280;49533;-34.520;150.798;2022-11-20T06:15:04;98924.88;;;22.41;30.31
63399;BME280;49533;-34.520;150.798;2022-11-20T06:17:31;98905.13;;;22.39;31.09
63399;BME280;49533;-34.520;150.798;2022-11-20T06:19:58;98920.19;;;22.38;31.13
63399;BME280;49533;-34.520;150.798;2022-11-20T06:22:25;98921.81;;;22.35;31.21
63399;BME280;49533;-34.520;150.798;2022-11-20T06:24:52;98932.13;;;22.35;30.80
63399;BME280;49533;-34.520;150.798;2022-11-20T06:27:19;98948.75;;;22.31;31.16
63399;BME280;49533;-34.520;150.798;2022-11-20T06:29:46;98925.50;;;22.29;31.27
63399;BME280;49533;-34.520;150.798;2022-11-20T06:32:13;98943.41;;;22.24;31.16
63399;BME280;49533;-34.520;150.798;2022-11-20T06:34:41;98928.75;;;22.24;31.30
63399;BME280;49533;-34.520;150.798;2022-11-20T06:37:09;98963.16;;;22.23;31.38
63399;BME280;49533;-34.520;150.798;2022-11-20T06:39:36;98957.63;;;22.23;31.76
63399;BME280;49533;-34.520;150.798;2022-11-20T06:42:03;98943.81;;;22.23;31.71
63399;BME280;49533;-34.520;150.798;2022-11-20T06:44:30;98951.75;;;22.21;31.39
63399;BME280;49533;-34.520;150.798;2022-11-20T06:46:57;98968.78;;;22.19;31.89
63399;BME280;49533;-34.520;150.798;2022-11-20T06:49:24;98979.44;;;22.17;30.95
63399;BME280;49533;-34.520;150.798;2022-11-20T06:51:51;98975.53;;;22.14;30.89
63399;BME280;49533;-34.520;150.798;2022-11-20T06:54:18;98977.09;;;22.19;31.17
63399;BME280;49533;-34.520;150.798;2022-11-20T06:56:46;99004.66;;;22.23;31.54
63399;BME280;49533;-34.520;150.798;2022-11-20T06:59:14;98991.47;;;22.30;31.14
63399;BME280;49533;-34.520;150.798;2022-11-20T07:01:41;98989.50;;;22.31;31.86
63399;BME280;49533;-34.520;150.798;2022-11-20T07:04:08;99011.22;;;22.32;31.86
63399;BME280;49533;-34.520;150.798;2022-11-20T07:06:35;98992.53;;;22.36;31.98
63399;BME280;49533;-34.520;150.798;2022-11-20T07:09:02;99017.03;;;22.38;32.17
63399;BME280;49533;-34.520;150.798;2022-11-20T07:11:29;98989.72;;;22.40;32.13
63399;BME280;49533;-34.520;150.798;2022-11-20T07:13:56;99009.47;;;22.42;32.38
63399;BME280;49533;-34.520;150.798;2022-11-20T07:16:23;99016.94;;;22.42;32.62
63399;BME280;49533;-34.520;150.798;2022-11-20T07:18:50;99025.25;;;22.42;32.45
63399;BME280;49533;-34.520;150.798;2022-11-20T07:21:17;99048.19;;;22.42;31.79
63399;BME280;49533;-34.520;150.798;2022-11-20T07:23:44;99041.09;;;22.41;31.94
63399;BME280;49533;-34.520;150.798;2022-11-20T07:26:11;99045.06;;;22.40;31.93
63399;BME280;49533;-34.520;150.798;2022-11-20T07:28:38;99026.09;;;22.39;31.97
63399;BME280;49533;-34.520;150.798;2022-11-20T07:31:05;99057.31;;;22.39;32.52
63399;BME280;49533;-34.520;150.798;2022-11-20T07:33:33;99042.72;;;22.39;32.04
63399;BME280;49533;-34.520;150.798;2022-11-20T07:36:00;99032.84;;;22.38;32.26
63399;BME280;49533;-34.520;150.798;2022-11-20T07:38:28;99061.72;;;22.36;32.32
63399;BME280;49533;-34.520;150.798;2022-11-20T07:40:56;99042.78;;;22.35;31.54
63399;BME280;49533;-34.520;150.798;2022-11-20T07:43:23;99048.38;;;22.31;31.93
63399;BME280;49533;-34.520;150.798;2022-11-20T07:45:51;99057.47;;;22.32;32.08
63399;BME280;49533;-34.520;150.798;2022-11-20T07:48:18;99060.25;;;22.32;32.14
63399;BME280;49533;-34.520;150.798;2022-11-20T07:50:45;99073.72;;;22.30;31.95
63399;BME280;49533;-34.520;150.798;2022-11-20T07:53:12;99062.66;;;22.30;31.70
63399;BME280;49533;-34.520;150.798;2022-11-20T07:55:39;99094.25;;;22.29;32.01
63399;BME280;49533;-34.520;150.798;2022-11-20T07:58:06;99078.50;;;22.26;31.21
63399;BME280;49533;-34.520;150.798;2022-11-20T08:00:33;99080.91;;;22.24;31.99
63399;BME280;49533;-34.520;150.798;2022-11-20T08:03:02;99091.97;;;22.24;32.18
63399;BME280;49533;-34.520;150.798;2022-11-20T08:05:30;99082.53;;;22.21;31.59
63399;BME280;49533;-34.520;150.798;2022-11-20T08:07:57;99079.44;;;22.19;31.05
63399;BME280;49533;-34.520;150.798;2022-11-20T08:10:25;99084.13;;;22.19;31.29
63399;BME280;49533;-34.520;150.798;2022-11-20T08:12:53;99078.25;;;22.17;31.86
63399;BME280;49533;-34.520;150.798;2022-11-20T08:15:31;99088.88;;;22.18;32.26
63399;BME280;49533;-34.520;150.798;2022-11-20T08:18:03;99090.88;;;22.18;32.83
63399;BME280;49533;-34.520;150.798;2022-11-20T08:20:31;99083.34;;;22.18;32.69
63399;BME280;49533;-34.520;150.798;2022-11-20T08:22:59;99101.56;;;22.19;32.60
63399;BME280;49533;-34.520;150.798;2022-11-20T08:25:27;99107.88;;;22.20;33.17
63399;BME280;49533;-34.520;150.798;2022-11-20T08:27:54;99128.38;;;22.19;32.61
63399;BME280;49533;-34.520;150.798;2022-11-20T08:30:21;99092.09;;;22.17;32.16
63399;BME280;49533;-34.520;150.798;2022-11-20T08:32:48;99121.72;;;22.16;32.94
63399;BME280;49533;-34.520;150.798;2022-11-20T08:35:15;99132.78;;;22.16;33.10
63399;BME280;49533;-34.520;150.798;2022-11-20T08:37:45;99121.38;;;22.14;33.40
63399;BME280;49533;-34.520;150.798;2022-11-20T08:40:12;99134.06;;;22.11;33.04
63399;BME280;49533;-34.520;150.798;2022-11-20T08:42:46;99143.97;;;22.09;32.14
63399;BME280;49533;-34.520;150.798;2022-11-20T08:45:14;99152.31;;;22.05;31.98
63399;BME280;49533;-34.520;150.798;2022-11-20T08:47:41;99153.94;;;22.03;31.67
63399;BME280;49533;-34.520;150.798;2022-11-20T08:50:09;99156.75;;;21.99;31.48
63399;BME280;49533;-34.520;150.798;2022-11-20T08:52:36;99150.84;;;21.97;31.61
63399;BME280;49533;-34.520;150.798;2022-11-20T08:55:04;99166.22;;;21.98;31.97
63399;BME280;49533;-34.520;150.798;2022-11-20T08:57:32;99142.94;;;21.99;32.50
63399;BME280;49533;-34.520;150.798;2022-11-20T08:59:59;99186.81;;;21.97;31.92
63399;BME280;49533;-34.520;150.798;2022-11-20T09:02:26;99177.00;;;21.92;31.58
63399;BME280;49533;-34.520;150.798;2022-11-20T09:04:53;99164.41;;;21.88;31.57
63399;BME280;49533;-34.520;150.798;2022-11-20T09:07:20;99181.47;;;21.83;30.94
63399;BME280;49533;-34.520;150.798;2022-11-20T09:09:47;99176.78;;;21.80;31.16
63399;BME280;49533;-34.520;150.798;2022-11-20T09:12:15;99192.22;;;21.77;31.41
63399;BME280;49533;-34.520;150.798;2022-11-20T09:14:43;99181.56;;;21.76;31.44
63399;BME280;49533;-34.520;150.798;2022-11-20T09:17:11;99188.66;;;21.77;31.05
63399;BME280;49533;-34.520;150.798;2022-11-20T09:19:40;99197.34;;;21.75;31.43
63399;BME280;49533;-34.520;150.798;2022-11-20T09:22:07;99195.81;;;21.74;31.71
63399;BME280;49533;-34.520;150.798;2022-11-20T09:24:34;99194.66;;;21.71;31.52
63399;BME280;49533;-34.520;150.798;2022-11-20T09:27:03;99189.13;;;21.71;31.84
63399;BME280;49533;-34.520;150.798;2022-11-20T09:29:30;99186.75;;;21.70;31.94
63399;BME280;49533;-34.520;150.798;2022-11-20T09:31:57;99197.47;;;21.68;31.88
63399;BME280;49533;-34.520;150.798;2022-11-20T09:34:24;99193.19;;;21.63;31.82
63399;BME280;49533;-34.520;150.798;2022-11-20T09:36:51;99209.03;;;21.59;31.60
63399;BME280;49533;-34.520;150.798;2022-11-20T09:39:18;99202.34;;;21.57;32.11
63399;BME280;49533;-34.520;150.798;2022-11-20T09:41:56;99205.47;;;21.59;31.90
63399;BME280;49533;-34.520;150.798;2022-11-20T09:44:40;99195.28;;;21.52;31.78
63399;BME280;49533;-34.520;150.798;2022-11-20T09:47:16;99188.97;;;21.52;32.00
63399;BME280;49533;-34.520;150.798;2022-11-20T09:52:31;99205.22;;;21.46;32.38
63399;BME280;49533;-34.520;150.798;2022-11-20T09:55:02;99215.13;;;21.43;32.38
63399;BME280;49533;-34.520;150.798;2022-11-20T09:57:34;99202.09;;;21.44;32.29
63399;BME280;49533;-34.520;150.798;2022-11-20T10:00:03;99222.66;;;21.39;32.14
63399;BME280;49533;-34.520;150.798;2022-11-20T10:02:37;99230.56;;;21.37;32.07
63399;BME280;49533;-34.520;150.798;2022-11-20T10:05:10;99225.84;;;21.34;32.59
63399;BME280;49533;-34.520;150.798;2022-11-20T10:07:41;99223.50;;;21.33;32.46
63399;BME280;49533;-34.520;150.798;2022-11-20T10:10:14;99234.56;;;21.33;32.55
63399;BME280;49533;-34.520;150.798;2022-11-20T10:12:51;99231.81;;;21.33;32.51
63399;BME280;49533;-34.520;150.798;2022-11-20T10:15:29;99233.03;;;21.28;32.73
63399;BME280;49533;-34.520;150.798;2022-11-20T10:18:02;99237.41;;;21.25;32.66
63399;BME280;49533;-34.520;150.798;2022-11-20T10:20:40;99234.25;;;21.23;32.86
63399;BME280;49533;-34.520;150.798;2022-11-20T10:23:16;99237.03;;;21.23;32.88
63399;BME280;49533;-34.520;150.798;2022-11-20T10:25:54;99238.59;;;21.24;33.41
63399;BME280;49533;-34.520;150.798;2022-11-20T10:28:30;99233.88;;;21.21;33.37
63399;BME280;49533;-34.520;150.798;2022-11-20T10:31:03;99261.53;;;21.18;33.45
63399;BME280;49533;-34.520;150.798;2022-11-20T10:33:32;99263.94;;;21.16;33.78
63399;BME280;49533;-34.520;150.798;2022-11-20T10:36:05;99267.91;;;21.11;33.26
63399;BME280;49533;-34.520;150.798;2022-11-20T10:38:35;99263.22;;;21.08;33.65
63399;BME280;49533;-34.520;150.798;2022-11-20T10:41:04;99262.44;;;21.08;33.61
63399;BME280;49533;-34.520;150.798;2022-11-20T10:43:45;99267.56;;;21.09;33.59
63399;BME280;49533;-34.520;150.798;2022-11-20T10:46:15;99278.19;;;21.11;33.72
63399;BME280;49533;-34.520;150.798;2022-11-20T10:48:43;99278.25;;;21.03;33.67
63399;BME280;49533;-34.520;150.798;2022-11-20T10:51:18;99277.50;;;20.99;34.28
63399;BME280;49533;-34.520;150.798;2022-11-20T10:53:51;99281.44;;;20.98;34.18
63399;BME280;49533;-34.520;150.798;2022-11-20T10:56:25;99276.75;;;20.95;34.18
63399;BME280;49533;-34.520;150.798;2022-11-20T10:59:10;99281.47;;;20.95;34.51
63399;BME280;49533;-34.520;150.798;2022-11-20T11:01:40;99281.88;;;20.93;34.19
63399;BME280;49533;-34.520;150.798;2022-11-20T11:04:23;99289.38;;;20.93;34.42
63399;BME280;49533;-34.520;150.798;2022-11-20T11:06:53;99290.97;;;20.90;34.22
63399;BME280;49533;-34.520;150.798;2022-11-20T11:09:24;99299.31;;;20.87;34.44
63399;BME280;49533;-34.520;150.798;2022-11-20T11:11:56;99301.69;;;20.84;34.36
63399;BME280;49533;-34.520;150.798;2022-11-20T11:14:24;99293.41;;;20.81;34.87
63399;BME280;49533;-34.520;150.798;2022-11-20T11:16:53;99305.25;;;20.81;34.81
63399;BME280;49533;-34.520;150.798;2022-11-20T11:19:20;99310.78;;;20.78;34.74
63399;BME280;49533;-34.520;150.798;2022-11-20T11:21:47;99303.28;;;20.78;34.79
63399;BME280;49533;-34.520;150.798;2022-11-20T11:24:19;99304.88;;;20.79;35.12
63399;BME280;49533;-34.520;150.798;2022-11-20T11:26:51;99305.69;;;20.76;35.20
63399;BME280;49533;-34.520;150.798;2022-11-20T11:29:19;99295.81;;;20.75;34.84
63399;BME280;49533;-34.520;150.798;2022-11-20T11:31:46;99309.22;;;20.77;35.10
63399;BME280;49533;-34.520;150.798;2022-11-20T11:34:14;99304.88;;;20.76;35.02
63399;BME280;49533;-34.520;150.798;2022-11-20T11:36:41;99309.66;;;20.72;34.99
63399;BME280;49533;-34.520;150.798;2022-11-20T11:39:14;99307.28;;;20.70;35.52
63399;BME280;49533;-34.520;150.798;2022-11-20T11:41:42;99304.56;;;20.67;35.44
63399;BME280;49533;-34.520;150.798;2022-11-20T11:44:19;99300.66;;;20.64;35.65
63399;BME280;49533;-34.520;150.798;2022-11-20T11:46:59;99295.50;;;20.66;35.47
63399;BME280;49533;-34.520;150.798;2022-11-20T11:49:26;99297.50;;;20.62;35.48
63399;BME280;49533;-34.520;150.798;2022-11-20T11:52:03;99306.59;;;20.59;35.81
63399;BME280;49533;-34.520;150.798;2022-11-20T11:54:39;99292.41;;;20.57;35.92
63399;BME280;49533;-34.520;150.798;2022-11-20T11:57:20;99292.78;;;20.55;35.81
63399;BME280;49533;-34.520;150.798;2022-11-20T11:59:54;99284.91;;;20.54;35.77
63399;BME280;49533;-34.520;150.798;2022-11-20T12:02:29;99286.09;;;20.53;35.90
63399;BME280;49533;-34.520;150.798;2022-11-20T12:05:02;99283.34;;;20.49;35.78
63399;BME280;49533;-34.520;150.798;2022-11-20T12:07:36;99284.97;;;20.47;35.76
63399;BME280;49533;-34.520;150.798;2022-11-20T12:10:06;99284.97;;;20.47;35.84
63399;BME280;49533;-34.520;150.798;2022-11-20T12:12:40;99282.59;;;20.45;36.05
63399;BME280;49533;-34.520;150.798;2022-11-20T12:15:11;99277.88;;;20.46;36.00
63399;BME280;49533;-34.520;150.798;2022-11-20T12:17:39;99286.16;;;20.46;36.27
63399;BME280;49533;-34.520;150.798;2022-11-20T12:20:20;99286.16;;;20.46;36.34
63399;BME280;49533;-34.520;150.798;2022-11-20T12:22:55;99256.59;;;20.42;36.37
63399;BME280;49533;-34.520;150.798;2022-11-20T12:25:24;99267.28;;;20.40;36.59
63399;BME280;49533;-34.520;150.798;2022-11-20T12:30:42;99257.41;;;20.39;36.94
63399;BME280;49533;-34.520;150.798;2022-11-20T12:33:18;99258.19;;;20.40;36.73
63399;BME280;49533;-34.520;150.798;2022-11-20T12:38:36;99251.50;;;20.37;37.23
63399;BME280;49533;-34.520;150.798;2022-11-20T12:41:15;99249.16;;;20.36;36.89
63399;BME280;49533;-34.520;150.798;2022-11-20T12:47:10;99242.91;;;20.25;36.71
63399;BME280;49533;-34.520;150.798;2022-11-20T12:49:46;99255.19;;;20.20;36.88
63399;BME280;49533;-34.520;150.798;2022-11-20T12:52:28;99237.47;;;20.17;36.87